createdAt,value
2022-09-25T00:02:09.895Z,98959.59
2022-09-25T00:04:37.412Z,98952.44
2022-09-25T00:07:04.583Z,98943.78
2022-09-25T00:09:31.756Z,98939.63
2022-09-25T00:11:59.199Z,98941.63
2022-09-25T00:14:26.342Z,98947.44
2022-09-25T00:16:53.556Z,98938.38
2022-09-25T00:19:40.037Z,98937.47
2022-09-25T00:22:07.212Z,98944.44
2022-09-25T00:24:34.628Z,98938.81
2022-09-25T00:27:01.760Z,98927.13
2022-09-25T00:29:30.535Z,98927.94
2022-09-25T00:31:58.017Z,98930.44
2022-09-25T00:34:25.168Z,98933.31
2022-09-25T00:36:52.311Z,98924.28
2022-09-25T00:39:19.733Z,98925.31
2022-09-25T00:41:46.937Z,98924.19
2022-09-25T00:44:32.731Z,98922.12
2022-09-25T00:47:00.396Z,98927.69
2022-09-25T00:49:27.523Z,98919.56
2022-09-25T00:52:02.498Z,98925.81
2022-09-25T00:54:31.543Z,98918.75
2022-09-25T00:56:59.083Z,98920.25
2022-09-25T00:59:30.155Z,98919.28
2022-09-25T01:01:57.604Z,98920.06
2022-09-25T01:04:24.736Z,98923.81
2022-09-25T01:06:52.307Z,98921.00
2022-09-25T01:09:19.955Z,98927.19
2022-09-25T01:11:47.167Z,98916.94
2022-09-25T01:14:17.465Z,98918.34
2022-09-25T01:16:53.010Z,98898.97
2022-09-25T01:19:23.883Z,98904.97
2022-09-25T01:22:03.662Z,98909.81
2022-09-25T01:24:44.783Z,98917.69
2022-09-25T01:27:19.119Z,98912.88
2022-09-25T01:29:52.665Z,98919.88
2022-09-25T01:32:26.406Z,98918.53
2022-09-25T01:34:53.567Z,98913.25
2022-09-25T01:37:23.212Z,98912.13
2022-09-25T01:40:07.856Z,98904.31
2022-09-25T01:42:37.618Z,98916.53
2022-09-25T01:45:05.786Z,98916.06
2022-09-25T01:47:37.814Z,98911.75
2022-09-25T01:50:10.301Z,98915.62
2022-09-25T01:52:38.660Z,98909.22
2022-09-25T01:55:10.765Z,98912.72
2022-09-25T01:57:42.496Z,98910.37
2022-09-25T02:00:10.203Z,98905.34
2022-09-25T02:02:43.248Z,98906.25
2022-09-25T02:05:12.618Z,98892.81
2022-09-25T02:07:41.866Z,98888.47
2022-09-25T02:10:09.865Z,98901.28
2022-09-25T02:12:40.956Z,98898.50
2022-09-25T02:15:09.462Z,98898.84
2022-09-25T02:17:58.820Z,98909.41
2022-09-25T02:20:31.985Z,98904.03
2022-09-25T02:23:10.825Z,98904.31
2022-09-25T02:25:42.132Z,98913.28
2022-09-25T02:28:10.046Z,98912.50
2022-09-25T02:30:37.241Z,98918.91
2022-09-25T02:33:04.415Z,98909.28
2022-09-25T02:35:32.197Z,98914.66
2022-09-25T02:37:59.460Z,98901.88
2022-09-25T02:40:34.023Z,98903.94
2022-09-25T02:43:16.381Z,98909.66
2022-09-25T02:45:52.797Z,98909.50
2022-09-25T02:48:26.209Z,98903.56
2022-09-25T02:51:12.789Z,98901.13
2022-09-25T02:53:43.754Z,98896.63
2022-09-25T02:56:10.953Z,98901.13
2022-09-25T02:58:49.420Z,98897.50
2022-09-25T03:01:17.550Z,98888.22
2022-09-25T03:03:44.972Z,98891.22
2022-09-25T03:06:12.111Z,98890.09
2022-09-25T03:08:42.355Z,98892.50
2022-09-25T03:11:10.922Z,98889.09
2022-09-25T03:13:38.329Z,98882.69
2022-09-25T03:16:10.951Z,98883.56
2022-09-25T03:18:38.172Z,98882.97
2022-09-25T03:21:05.595Z,98882.69
2022-09-25T03:23:32.728Z,98882.34
2022-09-25T03:25:59.860Z,98879.81
2022-09-25T03:28:27.369Z,98874.75
2022-09-25T03:30:58.573Z,98883.03
2022-09-25T03:33:25.972Z,98882.47
2022-09-25T03:36:10.984Z,98871.19
2022-09-25T03:38:38.561Z,98882.03
2022-09-25T03:41:08.788Z,98879.38
2022-09-25T03:43:37.401Z,98880.13
2022-09-25T03:46:05.151Z,98876.91
2022-09-25T03:48:33.076Z,98891.53
2022-09-25T03:51:01.227Z,98887.94
2022-09-25T03:53:32.266Z,98899.28
2022-09-25T03:56:04.591Z,98900.94
2022-09-25T03:58:32.955Z,98904.66
2022-09-25T04:01:01.655Z,98904.63
2022-09-25T04:03:30.018Z,98910.06
2022-09-25T04:05:58.462Z,98905.91
2022-09-25T04:08:27.012Z,98894.69
2022-09-25T04:10:56.333Z,98898.75
2022-09-25T04:13:23.808Z,98894.50
2022-09-25T04:15:51.724Z,98898.44
2022-09-25T04:18:19.255Z,98887.00
2022-09-25T04:20:46.432Z,98888.03
2022-09-25T04:23:13.571Z,98882.72
2022-09-25T04:25:40.990Z,98881.69
2022-09-25T04:28:10.146Z,98882.72
2022-09-25T04:30:37.293Z,98883.47
2022-09-25T04:33:23.333Z,98886.03
2022-09-25T04:35:51.068Z,98881.91
2022-09-25T04:38:18.910Z,98875.38
2022-09-25T04:40:46.184Z,98877.16
2022-09-25T04:43:13.488Z,98880.72
2022-09-25T04:45:40.920Z,98880.78
2022-09-25T04:48:08.059Z,98884.84
2022-09-25T04:50:35.267Z,98893.00
2022-09-25T04:53:03.030Z,98885.72
2022-09-25T04:55:30.276Z,98894.72
2022-09-25T04:57:59.269Z,98893.56
2022-09-25T05:00:28.186Z,98895.28
2022-09-25T05:02:55.552Z,98895.94
2022-09-25T05:05:22.837Z,98891.19
2022-09-25T05:07:54.291Z,98886.88
2022-09-25T05:10:22.206Z,98885.91
2022-09-25T05:12:54.283Z,98885.84
2022-09-25T05:15:21.641Z,98877.91
2022-09-25T05:17:49.004Z,98882.44
2022-09-25T05:20:17.212Z,98882.63
2022-09-25T05:22:44.360Z,98882.03
2022-09-25T05:25:11.853Z,98885.00
2022-09-25T05:27:39.297Z,98887.38
2022-09-25T05:30:08.882Z,98888.00
2022-09-25T05:32:36.314Z,98896.84
2022-09-25T05:35:04.294Z,98889.31
2022-09-25T05:37:31.427Z,98892.16
2022-09-25T05:39:58.642Z,98895.09
2022-09-25T05:42:26.107Z,98903.72
2022-09-25T05:44:53.226Z,98900.84
2022-09-25T05:47:20.363Z,98905.44
2022-09-25T05:49:47.781Z,98904.53
2022-09-25T05:52:14.920Z,98911.66
2022-09-25T05:54:42.079Z,98906.00
2022-09-25T05:57:09.498Z,98902.31
2022-09-25T05:59:36.700Z,98906.94
2022-09-25T06:02:03.923Z,98904.88
2022-09-25T06:04:31.353Z,98900.12
2022-09-25T06:07:01.929Z,98907.84
2022-09-25T06:09:29.077Z,98910.19
2022-09-25T06:11:57.234Z,98921.16
2022-09-25T06:14:24.631Z,98927.16
2022-09-25T06:16:51.747Z,98928.50
2022-09-25T06:19:19.157Z,98928.06
2022-09-25T06:21:47.743Z,98924.69
2022-09-25T06:24:14.877Z,98927.00
2022-09-25T06:26:42.284Z,98930.34
2022-09-25T06:29:09.432Z,98924.81
2022-09-25T06:31:37.871Z,98921.47
2022-09-25T06:34:06.039Z,98923.50
2022-09-25T06:36:33.266Z,98927.16
2022-09-25T06:39:00.412Z,98933.53
2022-09-25T06:41:27.962Z,98925.31
2022-09-25T06:43:55.186Z,98946.44
2022-09-25T06:46:22.433Z,98936.88
2022-09-25T06:48:54.270Z,98933.75
2022-09-25T06:51:24.752Z,98946.66
2022-09-25T06:53:53.292Z,98950.72
2022-09-25T06:56:20.739Z,98940.38
2022-09-25T06:58:47.875Z,98935.75
2022-09-25T07:01:15.332Z,98940.31
2022-09-25T07:03:45.367Z,98941.25
2022-09-25T07:06:16.688Z,98940.09
2022-09-25T07:08:44.406Z,98931.72
2022-09-25T07:11:12.295Z,98931.50
2022-09-25T07:13:41.903Z,98931.63
2022-09-25T07:16:14.459Z,98929.59
2022-09-25T07:18:41.956Z,98922.31
2022-09-25T07:21:13.234Z,98927.19
2022-09-25T07:23:42.095Z,98923.09
2022-09-25T07:26:11.056Z,98927.16
2022-09-25T07:28:39.271Z,98931.78
2022-09-25T07:31:19.803Z,98932.38
2022-09-25T07:33:47.559Z,98925.84
2022-09-25T07:36:15.504Z,98920.16
2022-09-25T07:38:42.725Z,98919.16
2022-09-25T07:41:10.720Z,98923.91
2022-09-25T07:43:38.718Z,98925.19
2022-09-25T07:46:06.418Z,98925.34
2022-09-25T07:48:33.874Z,98915.03
2022-09-25T07:51:01.568Z,98906.13
2022-09-25T07:53:28.772Z,98903.37
2022-09-25T07:56:06.046Z,98906.62
2022-09-25T07:58:39.228Z,98894.88
2022-09-25T08:01:08.365Z,98904.53
2022-09-25T08:03:35.806Z,98898.16
2022-09-25T08:06:04.172Z,98908.75
2022-09-25T08:08:31.389Z,98895.19
2022-09-25T08:11:02.891Z,98896.13
2022-09-25T08:13:32.718Z,98893.25
2022-09-25T08:16:03.865Z,98899.50
2022-09-25T08:18:31.271Z,98896.34
2022-09-25T08:21:04.888Z,98897.44
2022-09-25T08:23:32.371Z,98898.44
2022-09-25T08:25:59.687Z,98906.03
2022-09-25T08:28:26.846Z,98909.38
2022-09-25T08:30:54.438Z,98920.03
2022-09-25T08:33:21.659Z,98917.03
2022-09-25T08:35:57.852Z,98917.00
2022-09-25T08:38:26.413Z,98913.66
2022-09-25T08:40:55.151Z,98908.34
2022-09-25T08:43:22.939Z,98920.63
2022-09-25T08:46:08.833Z,98917.09
2022-09-25T08:48:56.335Z,98903.75
2022-09-25T08:51:23.877Z,98901.19
2022-09-25T08:53:51.019Z,98903.22
2022-09-25T08:56:18.186Z,98900.59
2022-09-25T08:58:53.156Z,98910.94
2022-09-25T09:01:21.892Z,98907.53
2022-09-25T09:03:54.037Z,98909.19
2022-09-25T09:06:21.562Z,98915.84
2022-09-25T09:09:00.383Z,98922.84
2022-09-25T09:11:30.970Z,98914.78
2022-09-25T09:14:10.879Z,98919.63
2022-09-25T09:16:42.627Z,98923.44
2022-09-25T09:19:09.915Z,98919.37
2022-09-25T09:21:37.653Z,98908.12
2022-09-25T09:24:04.746Z,98914.38
2022-09-25T09:26:38.171Z,98924.38
2022-09-25T09:29:05.618Z,98924.56
2022-09-25T09:31:37.618Z,98926.78
2022-09-25T09:34:14.630Z,98921.81
2022-09-25T09:36:54.441Z,98919.56
2022-09-25T09:39:21.727Z,98919.97
2022-09-25T09:41:54.583Z,98919.63
2022-09-25T09:44:30.737Z,98917.31
2022-09-25T09:47:05.186Z,98916.88
2022-09-25T09:49:43.537Z,98916.03
2022-09-25T09:52:12.483Z,98913.91
2022-09-25T09:54:47.916Z,98917.84
2022-09-25T09:57:18.931Z,98916.44
2022-09-25T09:59:47.314Z,98901.06
2022-09-25T10:02:25.598Z,98905.59
2022-09-25T10:04:53.120Z,98906.62
2022-09-25T10:07:22.446Z,98916.06
2022-09-25T10:09:49.834Z,98908.41
2022-09-25T10:12:29.021Z,98910.56
2022-09-25T10:14:56.902Z,98916.25
2022-09-25T10:17:24.359Z,98916.53
2022-09-25T10:19:55.645Z,98924.84
2022-09-25T10:22:26.704Z,98920.38
2022-09-25T10:24:55.590Z,98930.22
2022-09-25T10:27:26.617Z,98923.94
2022-09-25T10:30:04.776Z,98927.28
2022-09-25T10:32:35.915Z,98924.25
2022-09-25T10:35:03.509Z,98925.66
2022-09-25T10:37:34.871Z,98917.94
2022-09-25T10:40:02.968Z,98907.16
2022-09-25T10:42:48.803Z,98911.91
2022-09-25T10:45:35.339Z,98907.84
2022-09-25T10:48:26.930Z,98907.12
2022-09-25T10:51:06.096Z,98896.41
2022-09-25T10:53:34.447Z,98892.75
2022-09-25T10:56:05.609Z,98901.84
2022-09-25T10:58:36.035Z,98895.81
2022-09-25T11:01:04.030Z,98890.91
2022-09-25T11:03:32.354Z,98892.59
2022-09-25T11:06:01.541Z,98884.09
2022-09-25T11:08:30.401Z,98874.56
2022-09-25T11:10:58.227Z,98873.56
2022-09-25T11:13:29.137Z,98882.66
2022-09-25T11:15:57.953Z,98881.69
2022-09-25T11:18:51.646Z,98882.63
2022-09-25T11:21:20.870Z,98882.16
2022-09-25T11:23:47.991Z,98879.97
2022-09-25T11:26:16.663Z,98873.72
2022-09-25T11:28:44.496Z,98872.87
2022-09-25T11:31:30.418Z,98881.03
2022-09-25T11:33:57.801Z,98897.22
2022-09-25T11:36:24.984Z,98890.31
2022-09-25T11:39:14.350Z,98889.59
2022-09-25T11:41:46.099Z,98879.63
2022-09-25T11:44:22.578Z,98880.34
2022-09-25T11:46:52.829Z,98882.06
2022-09-25T11:49:24.531Z,98881.66
2022-09-25T11:51:51.868Z,98885.19
2022-09-25T11:54:33.850Z,98879.09
2022-09-25T11:57:07.913Z,98883.28
2022-09-25T11:59:55.599Z,98870.53
2022-09-25T12:02:30.897Z,98870.06
2022-09-25T12:05:07.508Z,98877.53
2022-09-25T12:07:35.903Z,98875.66
2022-09-25T12:10:09.133Z,98874.56
2022-09-25T12:12:57.690Z,98873.69
2022-09-25T12:15:43.518Z,98865.50
2022-09-25T12:18:17.496Z,98869.84
2022-09-25T12:21:03.362Z,98868.97
2022-09-25T12:23:34.559Z,98870.72
2022-09-25T12:26:17.263Z,98876.28
2022-09-25T12:29:04.523Z,98879.34
2022-09-25T12:31:35.373Z,98877.31
2022-09-25T12:34:23.764Z,98864.81
2022-09-25T12:36:52.845Z,98865.94
2022-09-25T12:39:24.880Z,98863.28
2022-09-25T12:41:56.407Z,98862.28
2022-09-25T12:44:27.265Z,98863.72
2022-09-25T12:47:02.899Z,98853.53
2022-09-25T12:49:34.654Z,98861.34
2022-09-25T12:52:03.487Z,98862.12
2022-09-25T12:54:48.901Z,98853.19
2022-09-25T12:57:24.130Z,98854.34
2022-09-25T12:59:57.336Z,98851.13
2022-09-25T13:02:27.579Z,98849.31
2022-09-25T13:05:02.346Z,98847.78
2022-09-25T13:07:36.265Z,98847.12
2022-09-25T13:10:06.832Z,98845.13
2022-09-25T13:12:35.578Z,98846.62
2022-09-25T13:15:08.859Z,98846.50
2022-09-25T13:17:36.864Z,98842.87
2022-09-25T13:20:22.841Z,98846.28
2022-09-25T13:22:50.290Z,98856.28
2022-09-25T13:25:18.579Z,98849.16
2022-09-25T13:27:46.095Z,98850.31
2022-09-25T13:30:25.240Z,98852.72
2022-09-25T13:32:53.161Z,98849.56
2022-09-25T13:35:21.321Z,98848.97
2022-09-25T13:37:48.860Z,98850.41
2022-09-25T13:40:38.423Z,98852.66
2022-09-25T13:43:23.277Z,98851.81
2022-09-25T13:46:09.200Z,98845.00
2022-09-25T13:48:37.613Z,98842.47
2022-09-25T13:51:18.018Z,98836.00
2022-09-25T13:53:52.314Z,98841.34
2022-09-25T13:56:23.495Z,98845.25
2022-09-25T13:59:03.180Z,98839.84
2022-09-25T14:01:33.364Z,98844.88
2022-09-25T14:04:01.223Z,98842.75
2022-09-25T14:06:36.816Z,98838.56
2022-09-25T14:09:08.257Z,98840.44
2022-09-25T14:11:37.771Z,98840.97
2022-09-25T14:14:06.325Z,98840.25
2022-09-25T14:16:34.800Z,98839.06
2022-09-25T14:19:02.335Z,98837.38
2022-09-25T14:21:30.007Z,98831.12
2022-09-25T14:23:58.030Z,98837.47
2022-09-25T14:26:26.461Z,98828.81
2022-09-25T14:28:54.522Z,98824.31
2022-09-25T14:31:40.048Z,98823.47
2022-09-25T14:34:14.700Z,98824.75
2022-09-25T14:36:45.148Z,98815.38
2022-09-25T14:39:25.785Z,98819.63
2022-09-25T14:42:17.187Z,98818.25
2022-09-25T14:44:57.667Z,98819.75
2022-09-25T14:47:26.403Z,98812.34
2022-09-25T14:49:53.555Z,98812.06
2022-09-25T14:52:24.092Z,98812.63
2022-09-25T14:54:52.168Z,98812.75
2022-09-25T14:57:25.223Z,98817.66
2022-09-25T14:59:56.883Z,98808.03
2022-09-25T15:02:26.118Z,98811.94
2022-09-25T15:04:57.092Z,98808.25
2022-09-25T15:07:24.867Z,98799.72
2022-09-25T15:09:55.384Z,98801.06
2022-09-25T15:12:34.040Z,98804.03
2022-09-25T15:15:08.333Z,98800.62
2022-09-25T15:17:38.359Z,98807.09
2022-09-25T15:20:07.861Z,98813.84
2022-09-25T15:22:36.125Z,98802.91
2022-09-25T15:25:04.193Z,98786.22
2022-09-25T15:27:31.359Z,98790.91
2022-09-25T15:30:00.137Z,98800.81
2022-09-25T15:32:39.702Z,98793.19
2022-09-25T15:35:08.664Z,98785.84
2022-09-25T15:37:36.140Z,98785.00
2022-09-25T15:40:11.833Z,98794.25
2022-09-25T15:42:41.280Z,98796.69
2022-09-25T15:45:09.250Z,98796.53
2022-09-25T15:47:36.639Z,98790.19
2022-09-25T15:50:06.042Z,98787.88
2022-09-25T15:52:34.057Z,98784.94
2022-09-25T15:55:02.386Z,98786.28
2022-09-25T15:57:30.475Z,98778.09
2022-09-25T16:00:16.479Z,98775.16
2022-09-25T16:03:08.991Z,98771.50
2022-09-25T16:05:36.163Z,98774.31
2022-09-25T16:08:17.664Z,98778.22
2022-09-25T16:10:49.160Z,98779.81
2022-09-25T16:13:21.622Z,98773.72
2022-09-25T16:15:52.679Z,98778.16
2022-09-25T16:18:32.139Z,98781.50
2022-09-25T16:21:22.837Z,98770.03
2022-09-25T16:23:56.264Z,98755.62
2022-09-25T16:26:24.142Z,98769.91
2022-09-25T16:28:57.712Z,98751.06
2022-09-25T16:31:25.073Z,98751.66
2022-09-25T16:33:54.486Z,98757.94
2022-09-25T16:36:21.600Z,98762.50
2022-09-25T16:39:10.943Z,98763.47
2022-09-25T16:41:39.322Z,98761.41
2022-09-25T16:44:14.236Z,98753.38
2022-09-25T16:46:42.614Z,98750.34
2022-09-25T16:49:12.088Z,98744.31
2022-09-25T16:51:48.405Z,98741.75
2022-09-25T16:54:16.779Z,98742.91
2022-09-25T16:56:44.389Z,98742.56
2022-09-25T16:59:15.267Z,98735.22
2022-09-25T17:01:43.014Z,98729.47
2022-09-25T17:04:11.040Z,98723.53
2022-09-25T17:06:40.815Z,98729.13
2022-09-25T17:09:12.188Z,98732.34
2022-09-25T17:11:39.852Z,98728.59
2022-09-25T17:14:07.054Z,98726.69
2022-09-25T17:16:34.790Z,98724.69
2022-09-25T17:19:01.984Z,98713.87
2022-09-25T17:21:29.127Z,98715.78
2022-09-25T17:23:56.547Z,98713.81
2022-09-25T17:26:24.159Z,98703.50
2022-09-25T17:28:51.673Z,98717.25
2022-09-25T17:31:22.682Z,98709.44
2022-09-25T17:33:50.237Z,98704.78
2022-09-25T17:36:17.415Z,98700.94
2022-09-25T17:38:44.797Z,98709.38
2022-09-25T17:41:17.976Z,98706.88
2022-09-25T17:43:45.574Z,98700.75
2022-09-25T17:46:16.260Z,98696.97
2022-09-25T17:48:43.490Z,98695.91
2022-09-25T17:51:13.130Z,98700.28
2022-09-25T17:53:40.316Z,98696.38
2022-09-25T17:56:10.080Z,98698.97
2022-09-25T17:58:37.648Z,98696.38
2022-09-25T18:01:09.579Z,98690.06
2022-09-25T18:03:37.042Z,98705.87
2022-09-25T18:06:04.807Z,98697.44
2022-09-25T18:08:31.999Z,98699.19
2022-09-25T18:11:01.783Z,98702.91
2022-09-25T18:13:29.026Z,98697.97
2022-09-25T18:15:57.120Z,98695.56
2022-09-25T18:18:24.811Z,98694.19
2022-09-25T18:21:10.476Z,98693.28
2022-09-25T18:23:38.808Z,98695.41
2022-09-25T18:26:07.564Z,98703.59
2022-09-25T18:28:34.811Z,98697.47
2022-09-25T18:31:02.346Z,98695.78
2022-09-25T18:33:29.561Z,98693.72
2022-09-25T18:35:56.882Z,98708.78
2022-09-25T18:38:24.318Z,98705.75
2022-09-25T18:40:51.855Z,98696.94
2022-09-25T18:43:19.451Z,98703.31
2022-09-25T18:45:51.291Z,98703.66
2022-09-25T18:48:18.465Z,98707.25
2022-09-25T18:50:49.042Z,98711.59
2022-09-25T18:53:16.878Z,98712.56
2022-09-25T18:55:44.058Z,98710.78
2022-09-25T18:58:11.538Z,98712.66
2022-09-25T19:00:40.066Z,98710.12
2022-09-25T19:03:07.461Z,98706.78
2022-09-25T19:05:34.995Z,98692.31
2022-09-25T19:08:04.999Z,98694.56
2022-09-25T19:10:34.601Z,98692.50
2022-09-25T19:13:01.933Z,98690.66
2022-09-25T19:15:29.667Z,98686.72
2022-09-25T19:17:59.979Z,98679.62
2022-09-25T19:20:27.637Z,98694.88
2022-09-25T19:22:56.109Z,98681.28
2022-09-25T19:25:23.346Z,98677.34
2022-09-25T19:27:50.507Z,98679.38
2022-09-25T19:30:18.312Z,98677.34
2022-09-25T19:32:45.666Z,98675.91
2022-09-25T19:35:13.260Z,98674.06
2022-09-25T19:37:42.057Z,98674.91
2022-09-25T19:40:27.841Z,98673.00
2022-09-25T19:42:55.549Z,98668.41
2022-09-25T19:45:24.963Z,98670.56
2022-09-25T19:47:52.100Z,98674.50
2022-09-25T19:50:19.635Z,98679.06
2022-09-25T19:52:50.923Z,98681.87
2022-09-25T19:55:18.305Z,98673.81
2022-09-25T19:57:46.097Z,98673.22
2022-09-25T20:00:15.699Z,98676.72
2022-09-25T20:02:46.745Z,98669.84
2022-09-25T20:05:14.034Z,98668.63
2022-09-25T20:07:41.198Z,98660.50
2022-09-25T20:10:08.911Z,98669.09
2022-09-25T20:12:36.100Z,98665.38
2022-09-25T20:15:03.255Z,98662.13
2022-09-25T20:17:30.672Z,98666.28
2022-09-25T20:19:57.797Z,98672.03
2022-09-25T20:22:25.463Z,98674.00
2022-09-25T20:24:52.871Z,98678.41
2022-09-25T20:27:23.273Z,98669.53
2022-09-25T20:29:50.761Z,98678.09
2022-09-25T20:32:18.668Z,98678.03
2022-09-25T20:34:45.814Z,98678.59
2022-09-25T20:37:12.930Z,98675.66
2022-09-25T20:39:40.467Z,98671.38
2022-09-25T20:42:07.598Z,98675.53
2022-09-25T20:44:34.739Z,98673.41
2022-09-25T20:47:02.131Z,98668.94
2022-09-25T20:49:30.223Z,98655.28
2022-09-25T20:51:57.375Z,98651.53
2022-09-25T20:54:42.933Z,98645.25
2022-09-25T20:57:10.626Z,98642.72
2022-09-25T20:59:37.815Z,98654.66
2022-09-25T21:02:05.214Z,98647.75
2022-09-25T21:04:32.722Z,98658.22
2022-09-25T21:07:00.206Z,98662.59
2022-09-25T21:09:27.755Z,98653.94
2022-09-25T21:11:55.347Z,98648.62
2022-09-25T21:14:23.937Z,98641.16
2022-09-25T21:16:51.508Z,98645.94
2022-09-25T21:19:19.929Z,98644.81
2022-09-25T21:21:47.210Z,98639.22
2022-09-25T21:24:15.079Z,98630.38
2022-09-25T21:26:42.584Z,98626.63
2022-09-25T21:29:10.259Z,98614.59
2022-09-25T21:31:38.627Z,98614.59
2022-09-25T21:34:06.946Z,98615.38
2022-09-25T21:36:34.745Z,98618.84
2022-09-25T21:39:01.976Z,98609.62
2022-09-25T21:41:29.828Z,98608.63
2022-09-25T21:43:57.908Z,98613.28
2022-09-25T21:46:25.479Z,98600.75
2022-09-25T21:48:53.830Z,98607.41
2022-09-25T21:51:21.663Z,98598.53
2022-09-25T21:53:48.911Z,98596.00
2022-09-25T21:56:17.352Z,98604.41
2022-09-25T21:58:45.118Z,98604.34
2022-09-25T22:01:13.604Z,98606.72
2022-09-25T22:03:41.633Z,98590.25
2022-09-25T22:06:10.852Z,98589.31
2022-09-25T22:08:38.709Z,98592.31
2022-09-25T22:11:06.429Z,98587.25
2022-09-25T22:13:34.635Z,98587.19
2022-09-25T22:16:02.335Z,98589.56
2022-09-25T22:18:29.851Z,98584.28
2022-09-25T22:20:56.996Z,98575.22
2022-09-25T22:23:24.646Z,98581.97
2022-09-25T22:25:52.342Z,98580.59
2022-09-25T22:28:20.089Z,98591.47
2022-09-25T22:30:47.732Z,98583.53
2022-09-25T22:33:15.187Z,98577.81
2022-09-25T22:35:42.324Z,98575.87
2022-09-25T22:38:09.473Z,98570.38
2022-09-25T22:40:37.819Z,98570.50
2022-09-25T22:43:05.383Z,98566.06
2022-09-25T22:45:32.817Z,98575.31
2022-09-25T22:48:00.521Z,98573.53
2022-09-25T22:50:27.663Z,98565.06
2022-09-25T22:52:58.326Z,98562.22
2022-09-25T22:55:26.251Z,98561.56
2022-09-25T22:57:53.501Z,98552.22
2022-09-25T23:00:20.700Z,98548.16
2022-09-25T23:02:48.151Z,98549.66
2022-09-25T23:05:15.387Z,98542.03
2022-09-25T23:07:42.599Z,98539.63
2022-09-25T23:10:10.008Z,98541.03
2022-09-25T23:12:37.166Z,98534.12
2022-09-25T23:15:04.496Z,98525.75
2022-09-25T23:17:31.922Z,98523.78
2022-09-25T23:19:59.175Z,98518.22
2022-09-25T23:22:26.447Z,98511.38
2022-09-25T23:24:53.847Z,98516.88
2022-09-25T23:27:20.988Z,98523.78
2022-09-25T23:29:48.129Z,98525.22
2022-09-25T23:32:15.577Z,98506.87
2022-09-25T23:34:42.755Z,98511.84
2022-09-25T23:37:09.876Z,98510.94
2022-09-25T23:39:37.658Z,98504.97
2022-09-25T23:42:04.843Z,98506.47
2022-09-25T23:44:32.335Z,98508.50
2022-09-25T23:46:59.757Z,98505.50
2022-09-25T23:49:26.871Z,98494.91
2022-09-25T23:51:54.422Z,98496.69
2022-09-25T23:54:21.858Z,98498.09
2022-09-25T23:56:48.993Z,98488.28
2022-09-25T23:59:16.296Z,98485.47
